Time;durP1;ratioP1;P1;durP2;ratioP2;P2;SDS_P1;SDS_P2;PMS_P1;PMS_P2;Temp;Humidity;BMP_temperature;BMP_pressure;BME280_temperature;BME280_humidity;BME280_pressure;Samples;Min_cycle;Max_cycle;Signal;HPM_P1;HPM_P2
2022/01/17 00:00:16;;;;;;;28.33;15.88;;;;;;;-6.35;100.00;95525.25;5066513;28;20425;-53
2022/01/17 00:02:47;;;;;;;28.15;15.35;;;;;;;-6.33;100.00;95526.88;5068323;28;20892;-50
2022/01/17 00:05:15;;;;;;;29.77;15.02;;;;;;;-6.35;100.00;95522.72;5067526;28;20073;-48
2022/01/17 00:07:42;;;;;;;31.33;14.98;;;;;;;-6.27;100.00;95531.50;5064233;28;20047;-49
2022/01/17 00:10:09;;;;;;;30.70;14.50;;;;;;;-6.29;100.00;95534.13;5065088;28;20884;-50
2022/01/17 00:12:43;;;;;;;26.23;15.18;;;;;;;-6.26;100.00;95533.13;5064121;28;20541;-48
2022/01/17 00:15:42;;;;;;;17.48;9.00;;;;;;;-6.29;100.00;95528.25;5069756;28;20040;-48
2022/01/17 00:20:41;;;;;;;32.47;13.82;;;;;;;-6.49;100.00;95517.81;5064760;28;20040;-48
2022/01/17 00:23:07;;;;;;;28.98;13.68;;;;;;;-6.45;100.00;95524.28;5067138;28;20041;-50
2022/01/17 00:25:34;;;;;;;33.75;16.10;;;;;;;-6.52;100.00;95520.56;5069771;28;20048;-48
2022/01/17 00:28:01;;;;;;;29.15;14.25;;;;;;;-6.57;100.00;95525.19;5065114;28;20048;-52
2022/01/17 00:30:29;;;;;;;28.33;13.88;;;;;;;-6.63;100.00;95526.38;5064531;28;20505;-49
2022/01/17 00:32:55;;;;;;;21.55;11.90;;;;;;;-6.56;100.00;95524.25;5064785;28;20044;-49
2022/01/17 00:35:24;;;;;;;27.15;13.20;;;;;;;-6.64;100.00;95519.72;5064513;28;20520;-48
2022/01/17 00:37:52;;;;;;;29.05;14.45;;;;;;;-6.71;100.00;95521.06;5062401;28;20063;-50
2022/01/17 00:40:20;;;;;;;30.52;13.55;;;;;;;-6.81;100.00;95528.50;5063709;28;20044;-49
2022/01/17 00:42:47;;;;;;;23.65;11.48;;;;;;;-6.87;100.00;95523.88;5063871;28;20043;-48
2022/01/17 00:45:15;;;;;;;39.08;15.20;;;;;;;-6.97;100.00;95522.88;5064001;28;20044;-48
2022/01/17 00:47:42;;;;;;;19.73;10.63;;;;;;;-6.94;100.00;95523.47;5064344;28;20040;-48
2022/01/17 00:50:09;;;;;;;26.13;11.40;;;;;;;-6.93;100.00;95529.38;5064563;28;20036;-49
2022/01/17 00:52:36;;;;;;;24.55;13.60;;;;;;;-6.96;100.00;95519.44;5064355;28;20041;-49
2022/01/17 00:55:04;;;;;;;19.73;10.07;;;;;;;-6.99;100.00;95514.56;5064339;28;20046;-50
2022/01/17 00:57:31;;;;;;;19.48;10.93;;;;;;;-6.92;100.00;95510.72;5063849;28;20044;-52
2022/01/17 00:59:57;;;;;;;26.98;12.40;;;;;;;-6.86;100.00;95510.28;5063699;28;20040;-48
2022/01/17 01:02:25;;;;;;;20.35;11.52;;;;;;;-6.83;100.00;95520.19;5069359;28;20036;-49
2022/01/17 01:04:52;;;;;;;29.42;12.85;;;;;;;-6.77;100.00;95518.94;5064138;28;20064;-51
2022/01/17 01:07:18;;;;;;;23.10;12.10;;;;;;;-6.75;100.00;95522.22;5066577;28;20142;-49
2022/01/17 01:09:58;;;;;;;19.95;11.55;;;;;;;-6.89;100.00;95520.63;5062198;28;20064;-52
2022/01/17 01:12:25;;;;;;;21.33;10.93;;;;;;;-6.88;100.00;95521.44;5063342;28;20436;-49
2022/01/17 01:14:52;;;;;;;21.98;12.63;;;;;;;-6.92;100.00;95506.44;5067154;28;20036;-50
2022/01/17 01:17:32;;;;;;;22.08;12.02;;;;;;;-6.90;100.00;95513.94;5064252;28;20411;-48
2022/01/17 01:20:47;;;;;;;21.25;12.02;;;;;;;-6.89;100.00;95505.44;5063147;28;20503;-50
2022/01/17 01:28:18;;;;;;;20.00;10.25;;;;;;;-6.97;100.00;95492.47;5063577;28;20040;-50
2022/01/17 01:30:51;;;;;;;24.40;14.20;;;;;;;-6.97;100.00;95487.41;5063399;28;20046;-51
2022/01/17 01:33:55;;;;;;;16.83;10.30;;;;;;;-7.00;100.00;95497.78;5064009;28;20494;-49
2022/01/17 01:36:17;;;;;;;22.88;12.00;;;;;;;-7.15;100.00;95494.56;5065325;28;20466;-51
2022/01/17 01:38:44;;;;;;;23.40;12.98;;;;;;;-7.13;100.00;95488.50;5062960;28;20044;-53
2022/01/17 01:41:11;;;;;;;20.42;10.15;;;;;;;-7.19;100.00;95488.09;5063084;28;20055;-48
2022/01/17 01:43:38;;;;;;;14.20;8.95;;;;;;;-7.25;100.00;95489.34;5063134;28;20063;-50
2022/01/17 01:46:05;;;;;;;29.10;10.43;;;;;;;-7.23;100.00;95482.44;5063203;28;20518;-48
2022/01/17 01:48:35;;;;;;;20.27;11.85;;;;;;;-7.28;100.00;95479.41;5063226;28;20517;-48
2022/01/17 01:51:03;;;;;;;21.52;10.68;;;;;;;-7.33;100.00;95476.38;5063517;28;20121;-48
2022/01/17 01:53:30;;;;;;;18.98;9.05;;;;;;;-7.31;100.00;95480.44;5067329;28;20502;-48
2022/01/17 01:55:58;;;;;;;17.83;9.40;;;;;;;-7.30;100.00;95479.53;5062490;28;20063;-50
2022/01/17 01:58:26;;;;;;;15.65;8.55;;;;;;;-7.25;100.00;95471.63;5062588;28;20485;-51
2022/01/17 02:00:54;;;;;;;23.95;9.95;;;;;;;-7.25;100.00;95470.81;5068232;28;20116;-51
2022/01/17 02:03:22;;;;;;;15.65;8.63;;;;;;;-7.30;100.00;95466.88;5061691;28;20048;-51
2022/01/17 02:05:49;;;;;;;15.98;9.23;;;;;;;-7.28;100.00;95464.22;5061780;28;20072;-50
2022/01/17 02:08:17;;;;;;;14.43;9.52;;;;;;;-7.23;100.00;95462.19;5068836;28;20055;-52
2022/01/17 02:10:44;;;;;;;24.92;11.73;;;;;;;-7.28;100.00;95449.03;5061475;28;20681;-48
2022/01/17 02:13:11;;;;;;;20.75;9.82;;;;;;;-7.27;100.00;95460.81;5065862;28;20048;-48
2022/01/17 02:15:39;;;;;;;18.15;9.38;;;;;;;-7.37;100.00;95447.16;5068414;28;20040;-48
2022/01/17 02:18:08;;;;;;;20.42;11.10;;;;;;;-7.35;100.00;95447.84;5067942;28;20048;-51
2022/01/17 02:20:44;;;;;;;18.65;9.20;;;;;;;-7.28;100.00;95464.22;5061267;28;20040;-52
2022/01/17 02:23:14;;;;;;;22.70;11.00;;;;;;;-7.22;100.00;95461.28;5061457;28;20453;-52
2022/01/17 02:25:41;;;;;;;16.83;9.82;;;;;;;-7.19;100.00;95463.59;5062128;28;20050;-49
2022/01/17 02:28:08;;;;;;;18.33;8.88;;;;;;;-7.21;100.00;95465.44;5062648;28;20045;-48
2022/01/17 02:30:35;;;;;;;16.77;11.23;;;;;;;-7.20;100.00;95456.94;5066110;28;20052;-48
2022/01/17 02:33:03;;;;;;;20.52;9.27;;;;;;;-7.21;100.00;95457.84;5069462;28;20072;-54
2022/01/17 02:35:30;;;;;;;21.92;10.60;;;;;;;-7.23;100.00;95462.19;5068095;28;20044;-52
2022/01/17 02:37:58;;;;;;;18.92;9.07;;;;;;;-7.30;100.00;95461.00;5068485;28;20060;-49
2022/01/17 02:40:25;;;;;;;18.55;9.25;;;;;;;-7.23;100.00;95467.25;5072608;28;20063;-51
2022/01/17 02:43:00;;;;;;;17.30;9.20;;;;;;;-7.28;100.00;95459.16;5068873;28;20044;-48
2022/01/17 02:45:33;;;;;;;17.20;9.35;;;;;;;-7.36;100.00;95461.44;5069026;28;20051;-50
2022/01/17 02:48:04;;;;;;;16.77;10.88;;;;;;;-7.37;100.00;95459.81;5069657;28;20123;-49
2022/01/17 02:50:32;;;;;;;27.65;11.70;;;;;;;-7.31;100.00;95459.38;5070674;28;20062;-51
2022/01/17 02:53:04;;;;;;;31.38;13.50;;;;;;;-7.27;100.00;95462.50;5077005;28;20036;-48
2022/01/17 02:55:31;;;;;;;24.02;10.18;;;;;;;-7.28;100.00;95446.50;5072220;28;20052;-48
2022/01/17 02:57:58;;;;;;;23.55;12.13;;;;;;;-7.22;100.00;95448.63;5069264;28;20094;-49
2022/01/17 03:00:25;;;;;;;19.63;11.60;;;;;;;-7.21;100.00;95440.13;5074333;28;20044;-50
2022/01/17 03:02:53;;;;;;;24.70;14.45;;;;;;;-7.19;100.00;95438.28;5069990;28;20044;-48
2022/01/17 03:05:21;;;;;;;26.13;13.15;;;;;;;-7.14;100.00;95441.31;5074468;28;20057;-49
2022/01/17 03:07:49;;;;;;;32.72;15.25;;;;;;;-7.03;100.00;95452.41;5071751;28;20047;-48
2022/01/17 03:10:36;;;;;;;27.20;11.55;;;;;;;-7.05;100.00;95436.53;5067864;28;20525;-48
2022/01/17 03:13:12;;;;;;;20.23;9.68;;;;;;;-6.91;100.00;95446.50;5074049;28;20533;-49
2022/01/17 03:15:40;;;;;;;20.67;8.60;;;;;;;-6.77;100.00;95456.44;5070362;28;20048;-52
2022/01/17 03:18:08;;;;;;;21.98;11.02;;;;;;;-6.74;100.00;95456.22;5069420;28;20050;-49
2022/01/17 03:20:37;;;;;;;22.95;10.15;;;;;;;-6.76;100.00;95445.38;5068868;28;20040;-49
2022/01/17 03:23:05;;;;;;;28.27;13.93;;;;;;;-6.71;100.00;95451.88;5075831;28;20044;-49
2022/01/17 03:25:33;;;;;;;22.38;11.88;;;;;;;-6.71;100.00;95446.78;5075558;28;20043;-49
2022/01/17 03:28:00;;;;;;;26.83;11.60;;;;;;;-6.63;100.00;95454.66;5069449;28;20041;-48
2022/01/17 03:30:30;;;;;;;26.13;13.70;;;;;;;-6.73;100.00;95450.25;5070746;28;20032;-48
2022/01/17 03:32:56;;;;;;;26.25;11.10;;;;;;;-6.69;100.00;95450.03;5067830;28;20051;-49
2022/01/17 03:35:23;;;;;;;10.50;5.40;;;;;;;-6.90;100.00;95443.03;5068520;28;20563;-53
2022/01/17 03:37:50;;;;;;;18.10;11.35;;;;;;;-6.85;100.00;95446.03;5076839;28;20540;-49
2022/01/17 03:40:17;;;;;;;26.85;12.18;;;;;;;-6.77;100.00;95451.38;5068647;28;20044;-51
2022/01/17 03:42:44;;;;;;;22.63;11.98;;;;;;;-6.83;100.00;95434.06;5068834;28;20040;-48
2022/01/17 03:45:12;;;;;;;29.48;13.23;;;;;;;-6.82;100.00;95448.38;5068472;28;20051;-49
2022/01/17 03:47:42;;;;;;;8.52;6.13;;;;;;;-7.03;100.00;95454.94;5066397;28;20033;-48
2022/01/17 03:50:14;;;;;;;24.23;12.55;;;;;;;-6.99;100.00;95443.66;5064512;28;20052;-48
2022/01/17 03:52:41;;;;;;;22.73;11.18;;;;;;;-6.97;100.00;95446.91;5063640;28;20044;-49
2022/01/17 03:55:14;;;;;;;26.10;12.88;;;;;;;-7.07;100.00;95456.09;5065257;28;20048;-48
2022/01/17 03:57:43;;;;;;;14.75;9.85;;;;;;;-7.10;100.00;95467.22;5067202;28;20055;-48
2022/01/17 04:00:24;;;;;;;19.08;11.27;;;;;;;-7.11;100.00;95468.16;5069550;28;20036;-50
2022/01/17 04:02:52;;;;;;;23.25;10.45;;;;;;;-7.21;100.00;95451.97;5066277;28;20036;-49
2022/01/17 04:05:19;;;;;;;20.45;10.68;;;;;;;-7.18;100.00;95455.09;5065495;28;20041;-48
2022/01/17 04:07:46;;;;;;;21.63;12.25;;;;;;;-7.15;100.00;95459.94;5066672;28;20045;-48
2022/01/17 04:10:14;;;;;;;19.77;9.75;;;;;;;-7.23;100.00;95457.13;5065015;28;20041;-48
2022/01/17 04:12:43;;;;;;;21.80;12.23;;;;;;;-7.28;100.00;95459.16;5064232;28;20047;-48
2022/01/17 04:15:11;;;;;;;20.65;12.88;;;;;;;-7.20;100.00;95464.53;5067208;28;20468;-48
2022/01/17 04:17:40;;;;;;;18.73;9.50;;;;;;;-7.18;100.00;95457.63;5066763;28;20045;-48
2022/01/17 04:20:12;;;;;;;36.53;17.13;;;;;;;-7.12;100.00;95464.78;5064563;28;20109;-48
2022/01/17 04:22:50;;;;;;;23.70;14.52;;;;;;;-7.06;100.00;95460.22;5065441;28;20514;-49
2022/01/17 04:25:17;;;;;;;21.65;11.35;;;;;;;-7.08;100.00;95469.63;5065500;28;20053;-49
2022/01/17 04:27:45;;;;;;;18.15;10.35;;;;;;;-7.20;100.00;95466.22;5064536;28;20055;-49
2022/01/17 04:30:13;;;;;;;28.55;10.55;;;;;;;-7.27;100.00;95465.03;5065575;28;20120;-51
2022/01/17 04:32:45;;;;;;;15.52;9.40;;;;;;;-7.39;100.00;95466.69;5062928;28;20038;-49
2022/01/17 04:35:14;;;;;;;33.72;13.85;;;;;;;-7.43;100.00;95472.91;5064619;28;20041;-48
2022/01/17 04:37:41;;;;;;;18.67;11.05;;;;;;;-7.51;100.00;95476.75;5064333;28;20043;-48
2022/01/17 04:40:09;;;;;;;20.85;11.27;;;;;;;-7.54;100.00;95474.41;5064413;28;20541;-48
2022/01/17 04:42:43;;;;;;;19.90;10.68;;;;;;;-7.56;100.00;95473.72;5066167;28;20054;-48
2022/01/17 04:45:11;;;;;;;21.38;12.13;;;;;;;-7.55;100.00;95472.78;5065238;28;20047;-48
2022/01/17 04:47:41;;;;;;;26.20;13.40;;;;;;;-7.55;100.00;95477.84;5064540;28;20045;-50
2022/01/17 04:50:13;;;;;;;43.00;16.48;;;;;;;-7.48;100.00;95477.47;5063449;28;20041;-49
2022/01/17 04:52:42;;;;;;;32.30;15.98;;;;;;;-7.42;100.00;95471.97;5063555;28;20040;-49
2022/01/17 04:55:11;;;;;;;26.73;15.80;;;;;;;-7.41;100.00;95473.59;5063938;28;20432;-49
2022/01/17 04:57:38;;;;;;;26.27;12.93;;;;;;;-7.41;100.00;95471.06;5063875;28;20052;-51
2022/01/17 05:00:07;;;;;;;28.80;12.27;;;;;;;-7.37;100.00;95459.81;5063128;28;20526;-49
2022/01/17 05:02:34;;;;;;;23.67;11.38;;;;;;;-7.33;100.00;95461.22;5066061;28;20037;-48
2022/01/17 05:05:04;;;;;;;26.23;14.30;;;;;;;-7.34;100.00;95459.59;5065702;28;20040;-51
2022/01/17 05:07:34;;;;;;;37.72;17.88;;;;;;;-7.28;100.00;95454.09;5064125;28;20102;-49
2022/01/17 05:10:04;;;;;;;36.55;18.08;;;;;;;-7.38;100.00;95443.00;5061984;28;20110;-53
2022/01/17 05:12:32;;;;;;;40.28;18.23;;;;;;;-7.34;100.00;95434.28;5062868;28;20502;-49
2022/01/17 05:14:59;;;;;;;22.77;13.35;;;;;;;-7.26;100.00;95449.75;5065120;28;20045;-48
2022/01/17 05:19:57;;;;;;;22.58;13.98;;;;;;;-7.26;100.00;95457.34;5063398;28;20498;-54
2022/01/17 05:22:29;;;;;;;25.63;11.18;;;;;;;-7.27;100.00;95473.47;5070047;28;20040;-49
2022/01/17 05:24:56;;;;;;;23.35;15.02;;;;;;;-7.27;100.00;95458.28;5060363;28;20051;-52
2022/01/17 05:27:23;;;;;;;33.92;17.25;;;;;;;-7.20;100.00;95451.88;5061662;28;20426;-52
2022/01/17 05:29:50;;;;;;;26.15;14.45;;;;;;;-7.18;100.00;95442.44;5064050;28;20044;-50
2022/01/17 05:32:17;;;;;;;31.27;16.90;;;;;;;-7.17;100.00;95449.09;5062115;28;20036;-49
2022/01/17 05:34:44;;;;;;;28.48;14.18;;;;;;;-7.11;100.00;95445.34;5067597;28;20044;-49
2022/01/17 05:37:13;;;;;;;30.55;13.45;;;;;;;-7.08;100.00;95436.72;5062581;28;20119;-48
2022/01/17 05:39:42;;;;;;;27.77;16.45;;;;;;;-7.15;100.00;95428.75;5061605;28;20045;-49
2022/01/17 05:42:14;;;;;;;23.55;12.30;;;;;;;-7.17;100.00;95441.50;5061036;28;20032;-49
2022/01/17 05:44:42;;;;;;;41.95;17.80;;;;;;;-7.12;100.00;95444.53;5070576;28;20122;-49
2022/01/17 05:47:09;;;;;;;42.08;21.40;;;;;;;-7.06;100.00;95445.03;5064146;28;20049;-50
2022/01/17 05:49:36;;;;;;;33.38;18.33;;;;;;;-7.15;100.00;95439.69;5065713;28;20044;-50
2022/01/17 05:52:04;;;;;;;36.67;18.15;;;;;;;-7.07;100.00;95461.94;5066341;28;20452;-51
2022/01/17 05:54:30;;;;;;;43.58;17.48;;;;;;;-7.12;100.00;95452.13;5063359;28;20036;-48
2022/01/17 05:56:57;;;;;;;32.90;19.50;;;;;;;-7.19;100.00;95448.41;5062929;28;20045;-50
2022/01/17 05:59:24;;;;;;;38.13;15.68;;;;;;;-7.20;100.00;95459.47;5063327;28;20036;-49
2022/01/17 06:01:51;;;;;;;31.95;15.00;;;;;;;-7.19;100.00;95458.53;5071355;28;20043;-49
2022/01/17 06:04:19;;;;;;;26.40;17.08;;;;;;;-7.20;100.00;95462.00;5067022;28;20123;-52
2022/01/17 06:06:46;;;;;;;39.95;19.83;;;;;;;-7.11;100.00;95466.41;5063639;28;20040;-49
2022/01/17 06:09:13;;;;;;;32.08;12.63;;;;;;;-7.20;100.00;95472.13;5061207;28;20044;-49
2022/01/17 06:11:40;;;;;;;28.40;15.32;;;;;;;-7.21;100.00;95480.63;5062112;28;20040;-51
2022/01/17 06:14:09;;;;;;;55.72;29.85;;;;;;;-7.14;100.00;95476.75;5063924;28;20044;-51
2022/01/17 06:16:36;;;;;;;53.03;23.98;;;;;;;-7.09;100.00;95480.66;5062502;28;20059;-48
2022/01/17 06:19:04;;;;;;;41.70;21.83;;;;;;;-7.08;100.00;95474.72;5062496;28;20041;-48
2022/01/17 06:21:31;;;;;;;41.20;19.70;;;;;;;-7.01;100.00;95483.50;5066659;28;20041;-50
2022/01/17 06:24:00;;;;;;;61.72;29.33;;;;;;;-6.93;100.00;95473.66;5064781;28;20130;-49
2022/01/17 06:26:27;;;;;;;56.88;24.13;;;;;;;-6.85;100.00;95471.38;5063256;28;20049;-50
2022/01/17 06:28:54;;;;;;;60.05;27.02;;;;;;;-6.82;100.00;95475.44;5062412;28;20176;-49
2022/01/17 06:31:21;;;;;;;48.22;23.15;;;;;;;-6.74;100.00;95484.06;5069762;28;20434;-48
2022/01/17 06:33:48;;;;;;;45.15;23.27;;;;;;;-6.65;100.00;95487.69;5062032;28;20041;-47
2022/01/17 06:36:15;;;;;;;40.08;19.75;;;;;;;-6.67;100.00;95486.19;5063342;28;20040;-48
2022/01/17 06:38:41;;;;;;;36.13;17.83;;;;;;;-6.63;100.00;95485.06;5065710;28;20036;-49
2022/01/17 06:41:08;;;;;;;38.47;19.85;;;;;;;-6.65;100.00;95497.03;5064949;28;20470;-51
2022/01/17 06:43:35;;;;;;;58.80;25.02;;;;;;;-6.54;100.00;95484.38;5068864;28;20040;-49
2022/01/17 06:46:02;;;;;;;48.40;22.42;;;;;;;-6.40;100.00;95491.81;5063023;28;20120;-49
2022/01/17 06:48:29;;;;;;;62.90;26.88;;;;;;;-6.29;100.00;95485.97;5062347;28;20045;-49
2022/01/17 06:50:56;;;;;;;58.55;24.20;;;;;;;-6.21;100.00;95480.31;5068395;28;20060;-49
2022/01/17 06:53:27;;;;;;;84.80;34.65;;;;;;;-6.10;100.00;95487.97;5061799;28;20395;-49
2022/01/17 06:55:54;;;;;;;72.93;30.38;;;;;;;-5.96;100.00;95485.25;5066920;28;20041;-50
2022/01/17 06:58:22;;;;;;;48.50;22.02;;;;;;;-5.80;100.00;95494.22;5071272;28;20592;-50
2022/01/17 07:00:50;;;;;;;42.72;17.55;;;;;;;-5.62;100.00;95492.84;5064797;28;20044;-50
2022/01/17 07:03:17;;;;;;;45.05;18.70;;;;;;;-5.43;100.00;95487.19;5065386;28;20147;-50
2022/01/17 07:05:44;;;;;;;29.95;17.60;;;;;;;-5.28;100.00;95480.13;5063265;28;20103;-49
2022/01/17 07:08:11;;;;;;;41.03;20.60;;;;;;;-5.15;100.00;95469.03;5061723;28;20526;-49
2022/01/17 07:10:38;;;;;;;47.30;23.58;;;;;;;-4.96;100.00;95474.31;5060881;28;20041;-51
2022/01/17 07:13:05;;;;;;;34.05;19.98;;;;;;;-4.75;100.00;95474.38;5066051;28;20049;-50
2022/01/17 07:15:36;;;;;;;44.03;20.95;;;;;;;-4.55;100.00;95472.00;5065523;28;20048;-50
2022/01/17 07:18:04;;;;;;;26.50;14.95;;;;;;;-4.31;100.00;95474.28;5062587;28;20037;-51
2022/01/17 07:20:30;;;;;;;23.77;12.75;;;;;;;-3.96;100.00;95483.34;5062477;28;21462;-48
2022/01/17 07:22:57;;;;;;;21.55;10.85;;;;;;;-3.66;100.00;95496.09;5065513;28;20129;-48
2022/01/17 07:25:24;;;;;;;18.92;10.30;;;;;;;-3.24;100.00;95504.59;5065213;28;20056;-49
2022/01/17 07:27:51;;;;;;;34.75;11.60;;;;;;;-2.88;99.79;95501.47;5063929;28;20043;-49
2022/01/17 07:30:18;;;;;;;27.10;13.30;;;;;;;-2.62;97.08;95506.06;5063773;28;20044;-48
2022/01/17 07:32:45;;;;;;;27.98;15.35;;;;;;;-2.55;95.76;95476.53;5065214;28;20033;-49
2022/01/17 07:35:12;;;;;;;26.23;13.45;;;;;;;-2.27;96.80;95509.81;5065739;28;20067;-49
2022/01/17 07:37:39;;;;;;;7.88;5.63;;;;;;;-2.15;96.65;95498.53;5066633;28;20123;-50
2022/01/17 07:40:07;;;;;;;28.45;12.52;;;;;;;-2.00;97.67;95495.56;5058271;28;20117;-48
2022/01/17 07:42:35;;;;;;;29.70;10.25;;;;;;;-1.86;96.52;95491.81;5065817;28;20505;-51
2022/01/17 07:45:10;;;;;;;28.63;14.27;;;;;;;-1.76;95.82;95483.16;5063404;28;20045;-49
2022/01/17 07:47:56;;;;;;;25.15;11.73;;;;;;;-1.61;94.19;95492.94;5069414;28;20465;-48
2022/01/17 07:50:24;;;;;;;13.32;6.57;;;;;;;-1.39;92.64;95510.50;5063687;28;20058;-49
2022/01/17 07:52:52;;;;;;;11.23;6.05;;;;;;;-1.25;91.51;95519.44;5070383;28;20039;-48
2022/01/17 07:55:20;;;;;;;17.17;7.82;;;;;;;-1.10;90.19;95524.88;5061112;28;20064;-49
2022/01/17 07:57:48;;;;;;;18.45;6.47;;;;;;;-1.02;88.88;95554.88;5062491;28;20051;-48
2022/01/17 08:00:22;;;;;;;20.27;7.53;;;;;;;-0.97;89.53;95566.28;5068773;28;20097;-53
2022/01/17 08:02:50;;;;;;;19.48;9.48;;;;;;;-0.74;90.28;95595.81;5072704;28;20044;-52
2022/01/17 08:05:18;;;;;;;25.55;12.18;;;;;;;-0.62;90.68;95558.84;5064933;28;20436;-49
2022/01/17 08:07:45;;;;;;;25.13;11.63;;;;;;;-0.45;91.32;95559.81;5063287;28;20044;-51
2022/01/17 08:10:13;;;;;;;23.73;11.85;;;;;;;-0.26;91.54;95534.09;5060410;28;20040;-50
2022/01/17 08:12:46;;;;;;;13.15;7.45;;;;;;;-0.07;91.30;95497.31;5067512;28;20049;-50
2022/01/17 08:15:14;;;;;;;23.10;9.82;;;;;;;0.01;89.49;95483.75;5065670;28;20037;-50
2022/01/17 08:17:42;;;;;;;18.13;9.43;;;;;;;0.12;88.79;95480.13;5060245;28;20056;-49
2022/01/17 08:20:09;;;;;;;19.50;8.93;;;;;;;0.29;87.46;95486.97;5066420;28;20064;-52
2022/01/17 08:22:37;;;;;;;13.82;7.70;;;;;;;0.41;85.88;95495.22;5064726;28;20055;-50
2022/01/17 08:25:05;;;;;;;16.80;5.30;;;;;;;0.53;84.29;95524.75;5066259;28;20044;-51
2022/01/17 08:27:31;;;;;;;15.88;8.57;;;;;;;0.66;83.59;95554.31;5071565;28;20063;-48
2022/01/17 08:30:00;;;;;;;11.35;6.97;;;;;;;0.79;82.80;95597.50;5067955;28;20058;-53
2022/01/17 08:32:47;;;;;;;21.10;10.10;;;;;;;0.90;82.85;95603.19;5062822;28;20060;-51
2022/01/17 08:35:14;;;;;;;9.55;5.93;;;;;;;0.98;81.58;95614.44;5069403;28;20045;-52
2022/01/17 08:37:41;;;;;;;17.13;5.90;;;;;;;1.07;79.77;95598.16;5064536;28;20091;-48
2022/01/17 08:40:12;;;;;;;12.65;5.72;;;;;;;1.11;80.75;95548.91;5073751;28;20060;-49
2022/01/17 08:42:39;;;;;;;7.95;3.80;;;;;;;1.42;79.70;95560.41;5069871;28;20048;-49
2022/01/17 08:45:09;;;;;;;11.10;5.72;;;;;;;1.46;81.10;95588.22;5063068;28;20036;-50
2022/01/17 08:47:56;;;;;;;11.57;5.30;;;;;;;1.56;79.46;95526.44;5064388;28;20052;-51
2022/01/17 08:50:23;;;;;;;12.23;4.13;;;;;;;1.62;76.23;95525.81;5068345;28;20033;-51
2022/01/17 08:52:50;;;;;;;11.63;5.07;;;;;;;1.66;74.93;95509.13;5064270;28;20044;-52
2022/01/17 08:55:18;;;;;;;10.73;5.00;;;;;;;1.72;74.43;95448.63;5064761;28;20057;-51
2022/01/17 08:57:45;;;;;;;7.38;4.45;;;;;;;1.81;72.63;95472.53;5068485;28;20056;-51
2022/01/17 09:00:17;;;;;;;10.88;4.93;;;;;;;1.93;74.15;95507.22;5067319;28;20051;-53
2022/01/17 09:03:03;;;;;;;16.17;5.93;;;;;;;1.95;72.63;95489.88;5064995;28;20143;-50
2022/01/17 09:05:31;;;;;;;7.72;5.00;;;;;;;1.99;73.69;95434.63;5068130;28;20770;-52
2022/01/17 09:07:59;;;;;;;8.77;4.18;;;;;;;1.95;73.08;95428.22;5066022;28;20052;-49
2022/01/17 09:10:27;;;;;;;8.55;4.32;;;;;;;1.91;74.18;95426.97;5063728;28;20037;-49
2022/01/17 09:12:54;;;;;;;15.18;6.57;;;;;;;2.12;75.59;95428.19;5066877;28;20056;-48
2022/01/17 09:15:21;;;;;;;11.52;6.05;;;;;;;2.25;75.78;95433.63;5073423;28;20040;-49
2022/01/17 09:17:48;;;;;;;12.13;5.07;;;;;;;2.34;74.50;95432.66;5060806;28;20044;-48
2022/01/17 09:20:15;;;;;;;14.35;5.90;;;;;;;2.35;74.87;95439.41;5062343;28;20061;-50
2022/01/17 09:22:42;;;;;;;9.05;5.88;;;;;;;2.42;74.94;95409.50;5063278;28;20116;-50
2022/01/17 09:25:09;;;;;;;10.48;5.32;;;;;;;2.45;75.32;95409.16;5064950;28;20040;-49
2022/01/17 09:27:42;;;;;;;10.60;5.35;;;;;;;2.45;75.09;95409.16;5059997;28;20399;-49
2022/01/17 09:30:13;;;;;;;10.93;6.13;;;;;;;2.61;75.91;95434.03;5060619;28;20040;-53
2022/01/17 09:32:40;;;;;;;7.60;4.57;;;;;;;2.75;74.91;95434.28;5060571;28;20043;-52
2022/01/17 09:35:08;;;;;;;10.93;5.22;;;;;;;2.73;75.29;95421.59;5068327;28;20058;-48
2022/01/17 09:37:36;;;;;;;10.23;5.30;;;;;;;2.90;76.14;95426.66;5064155;28;20052;-51
2022/01/17 09:40:05;;;;;;;15.57;6.18;;;;;;;2.98;75.51;95424.06;5058842;28;20418;-50
2022/01/17 09:42:36;;;;;;;7.50;4.32;;;;;;;2.97;74.52;95427.59;5061420;28;20036;-52
2022/01/17 09:45:06;;;;;;;7.60;4.72;;;;;;;2.99;75.12;95415.34;5061902;28;20045;-49
2022/01/17 09:47:34;;;;;;;9.63;4.85;;;;;;;2.85;75.65;95425.41;5064166;28;20048;-49
2022/01/17 09:50:02;;;;;;;12.65;6.60;;;;;;;2.70;76.70;95441.69;5066232;28;20127;-52
2022/01/17 09:52:35;;;;;;;12.05;5.07;;;;;;;2.53;76.97;95451.25;5060057;28;20411;-48
2022/01/17 09:55:08;;;;;;;12.13;6.15;;;;;;;2.60;76.51;95449.63;5060724;28;20065;-49
2022/01/17 09:57:40;;;;;;;9.95;5.78;;;;;;;2.65;76.62;95444.78;5065786;28;20105;-47
2022/01/17 10:00:09;;;;;;;10.15;4.88;;;;;;;2.58;75.58;95413.00;5059998;28;20074;-49
2022/01/17 10:02:40;;;;;;;6.88;3.70;;;;;;;2.55;75.96;95455.25;5062041;28;20086;-49
2022/01/17 10:05:13;;;;;;;13.95;4.32;;;;;;;2.59;76.14;95450.56;5062071;28;20080;-50
2022/01/17 10:07:54;;;;;;;9.07;4.22;;;;;;;2.68;76.21;95467.59;5065124;28;20067;-52
2022/01/17 10:10:43;;;;;;;11.73;4.57;;;;;;;2.62;75.69;95434.81;5062813;28;20060;-50
2022/01/17 10:13:25;;;;;;;6.45;3.72;;;;;;;2.62;76.56;95486.25;5056623;28;20041;-49
2022/01/17 10:16:00;;;;;;;9.75;3.13;;;;;;;2.65;75.74;95457.66;5060693;28;20066;-48
2022/01/17 10:18:29;;;;;;;6.78;2.60;;;;;;;2.59;76.31;95460.88;5060154;28;20051;-48
2022/01/17 10:24:25;;;;;;;8.35;4.30;;;;;;;2.67;75.36;95464.22;5050488;28;20056;-52
2022/01/17 10:35:37;;;;;;;7.07;4.07;;;;;;;2.43;75.02;95403.41;5012822;28;20065;-48
2022/01/17 10:38:20;;;;;;;5.30;3.28;;;;;;;2.33;76.53;95402.78;5042370;28;20518;-48
2022/01/17 10:41:02;;;;;;;4.00;2.17;;;;;;;2.28;77.11;95402.47;5058633;28;20048;-49
2022/01/17 10:43:38;;;;;;;10.20;4.45;;;;;;;2.26;76.27;95419.81;5053016;28;20478;-49
2022/01/17 10:46:08;;;;;;;8.18;3.83;;;;;;;2.21;76.73;95407.44;5057199;28;20044;-47
2022/01/17 10:48:46;;;;;;;6.88;3.53;;;;;;;2.21;76.77;95396.38;5057631;28;20044;-51
2022/01/17 10:51:15;;;;;;;6.28;3.80;;;;;;;2.37;77.41;95391.19;5058388;28;20044;-48
2022/01/17 10:53:42;;;;;;;6.28;3.00;;;;;;;2.52;77.57;95380.22;5054764;28;20036;-48
2022/01/17 10:56:11;;;;;;;7.95;4.22;;;;;;;2.85;75.47;95389.38;5058568;28;20147;-48
2022/01/17 10:58:39;;;;;;;5.15;3.33;;;;;;;3.01;74.57;95419.38;5064293;28;20484;-47
2022/01/17 11:01:11;;;;;;;4.40;2.20;;;;;;;2.90;74.01;95400.94;5058309;28;20055;-48
2022/01/17 11:03:39;;;;;;;4.32;2.22;;;;;;;3.01;74.45;95426.31;5060231;28;20036;-48
2022/01/17 11:06:19;;;;;;;8.45;4.03;;;;;;;3.03;73.29;95396.06;5060771;28;20095;-51
2022/01/17 11:08:46;;;;;;;5.55;3.40;;;;;;;2.99;73.43;95394.75;5063118;28;20044;-49
2022/01/17 11:11:13;;;;;;;6.38;3.38;;;;;;;3.14;73.00;95408.53;5059350;28;20045;-52
2022/01/17 11:13:48;;;;;;;7.70;4.40;;;;;;;3.16;73.19;95404.00;5059206;28;20403;-49
2022/01/17 11:16:19;;;;;;;9.77;2.88;;;;;;;3.36;72.61;95412.06;5062210;28;20133;-52
2022/01/17 11:18:57;;;;;;;9.98;3.40;;;;;;;3.61;71.56;95368.91;5054604;28;20433;-49
2022/01/17 11:21:25;;;;;;;5.15;3.78;;;;;;;3.72;70.97;95390.09;5060255;28;20041;-49
2022/01/17 11:23:53;;;;;;;8.40;4.90;;;;;;;3.90;69.55;95382.81;5063331;28;20440;-48
2022/01/17 11:26:20;;;;;;;4.88;3.88;;;;;;;3.90;69.12;95377.69;5066492;28;20044;-49
2022/01/17 11:28:49;;;;;;;5.85;3.20;;;;;;;3.97;68.27;95394.03;5064111;28;20054;-50
2022/01/17 11:31:16;;;;;;;11.05;4.15;;;;;;;3.92;69.35;95360.25;5067099;28;20052;-49
2022/01/17 11:33:47;;;;;;;9.27;3.17;;;;;;;3.76;68.94;95387.00;5064887;28;20096;-49
2022/01/17 11:36:16;;;;;;;6.13;3.00;;;;;;;3.48;69.65;95342.97;5064200;28;20135;-50
2022/01/17 11:38:47;;;;;;;4.70;2.40;;;;;;;3.68;69.94;95357.94;5061725;28;20044;-48
2022/01/17 11:41:27;;;;;;;6.60;2.80;;;;;;;3.92;69.71;95370.56;5064541;28;20047;-48
2022/01/17 11:44:00;;;;;;;5.15;2.92;;;;;;;3.98;67.91;95385.34;5065404;28;20051;-49
2022/01/17 11:46:30;;;;;;;6.80;2.72;;;;;;;4.00;68.34;95361.97;5064494;28;20048;-48
2022/01/17 11:49:06;;;;;;;6.53;2.65;;;;;;;4.30;66.55;95352.44;5065935;28;20429;-47
2022/01/17 11:51:46;;;;;;;3.55;2.15;;;;;;;4.36;66.40;95385.28;5063507;28;20449;-48